Time;durP1;ratioP1;P1;durP2;ratioP2;P2;SDS_P1;SDS_P2;PMS_P1;PMS_P2;Temp;Humidity;BMP_temperature;BMP_pressure;BME280_temperature;BME280_humidity;BME280_pressure;Samples;Min_cycle;Max_cycle;Signal;HPM_P1;HPM_P2
2024/01/12 00:02:01;;;;;;;8.40;2.40;;;3.10;99.90;;;;;;5017464;28;20048;-71
2024/01/12 00:04:27;;;;;;;11.00;3.00;;;3.10;99.90;;;;;;5017336;28;20151;-72
2024/01/12 00:06:52;;;;;;;7.60;2.10;;;3.10;99.90;;;;;;5019483;28;20041;-71
2024/01/12 00:09:18;;;;;;;8.40;2.60;;;3.10;99.90;;;;;;5019306;28;20183;-71
2024/01/12 00:11:44;;;;;;;9.23;2.47;;;3.10;99.90;;;;;;5015830;28;20055;-72
2024/01/12 00:14:12;;;;;;;7.65;2.28;;;3.10;99.90;;;;;;5017527;28;20048;-72
2024/01/12 00:16:37;;;;;;;15.35;2.88;;;3.10;99.90;;;;;;5011789;28;20050;-72
2024/01/12 00:19:03;;;;;;;9.63;3.10;;;3.10;99.90;;;;;;5015604;28;20041;-72
2024/01/12 00:21:29;;;;;;;12.23;2.50;;;3.10;99.90;;;;;;5018392;28;20395;-71
2024/01/12 00:23:57;;;;;;;8.77;3.03;;;3.10;99.90;;;;;;5019967;28;20072;-71
2024/01/12 00:26:22;;;;;;;6.63;2.30;;;3.10;99.90;;;;;;5009399;28;20119;-72
2024/01/12 00:28:48;;;;;;;7.20;2.53;;;3.00;99.90;;;;;;5012558;28;20072;-72
2024/01/12 00:31:13;;;;;;;10.70;2.40;;;3.00;99.90;;;;;;5015130;28;20444;-72
2024/01/12 00:33:39;;;;;;;6.97;2.77;;;3.00;99.90;;;;;;5019349;28;20058;-72
2024/01/12 00:36:05;;;;;;;8.93;3.00;;;3.00;99.90;;;;;;5016600;28;20045;-72
2024/01/12 00:38:31;;;;;;;9.40;2.33;;;3.00;99.90;;;;;;5017927;28;20041;-72
2024/01/12 00:40:57;;;;;;;10.73;2.80;;;3.00;99.90;;;;;;4995750;28;20061;-72
2024/01/12 00:43:22;;;;;;;8.70;2.77;;;3.00;99.90;;;;;;5019845;28;20071;-72
2024/01/12 00:45:48;;;;;;;10.80;2.50;;;3.00;99.90;;;;;;5015882;28;20088;-72
2024/01/12 00:48:14;;;;;;;8.88;2.35;;;2.90;99.90;;;;;;5019958;28;20049;-72
2024/01/12 00:50:42;;;;;;;11.33;2.97;;;2.90;99.90;;;;;;5022092;28;20037;-72
2024/01/12 00:53:08;;;;;;;11.90;3.00;;;2.90;99.90;;;;;;5018664;28;20041;-72
2024/01/12 00:55:33;;;;;;;14.73;2.63;;;2.90;99.90;;;;;;5022819;28;20037;-72
2024/01/12 00:57:59;;;;;;;9.40;2.67;;;2.90;99.90;;;;;;5021125;28;20045;-72
2024/01/12 01:00:27;;;;;;;11.20;3.10;;;2.90;99.90;;;;;;5016612;28;20967;-71
2024/01/12 01:02:52;;;;;;;8.90;2.15;;;2.80;99.90;;;;;;5023248;28;20033;-72
2024/01/12 01:05:18;;;;;;;8.37;2.67;;;2.80;99.90;;;;;;5022411;28;20045;-72
2024/01/12 01:07:44;;;;;;;4.93;1.73;;;2.90;99.90;;;;;;5022848;28;20131;-72
2024/01/12 01:10:10;;;;;;;8.43;1.93;;;2.90;99.90;;;;;;5021062;28;20514;-72
2024/01/12 01:12:36;;;;;;;7.90;1.95;;;2.90;99.90;;;;;;5022080;28;20089;-70
2024/01/12 01:15:06;;;;;;;5.60;2.13;;;2.90;99.90;;;;;;5023236;28;20041;-71
2024/01/12 01:17:38;;;;;;;7.82;2.22;;;2.90;99.90;;;;;;5024125;28;20045;-71
2024/01/12 01:20:04;;;;;;;5.38;2.10;;;2.90;99.90;;;;;;5025185;28;20084;-71
2024/01/12 01:22:34;;;;;;;5.18;2.40;;;2.90;99.90;;;;;;5024914;28;20094;-71
2024/01/12 01:25:01;;;;;;;5.53;2.13;;;2.90;99.90;;;;;;5017644;28;20061;-71
2024/01/12 01:27:29;;;;;;;;;;;2.90;99.90;;;;;;5009270;28;20041;-70
2024/01/12 01:29:54;;;;;;;8.35;2.40;;;2.80;99.90;;;;;;5017151;28;19921;-71
2024/01/12 01:32:20;;;;;;;7.10;2.60;;;2.80;99.90;;;;;;5026395;28;20035;-71
2024/01/12 01:34:45;;;;;;;8.53;2.70;;;2.70;99.90;;;;;;5023997;28;20474;-70
2024/01/12 01:37:11;;;;;;;12.77;2.80;;;2.70;99.90;;;;;;5026855;28;20307;-71
2024/01/12 01:39:37;;;;;;;6.33;2.27;;;2.70;99.90;;;;;;5025085;28;20104;-71
2024/01/12 01:42:02;;;;;;;7.40;2.30;;;2.70;99.90;;;;;;5025905;28;21026;-71
2024/01/12 01:44:28;;;;;;;6.67;2.63;;;2.70;99.90;;;;;;5023631;28;20116;-71
2024/01/12 01:46:56;;;;;;;9.90;2.63;;;2.70;99.90;;;;;;5026402;28;20387;-71
2024/01/12 01:49:22;;;;;;;5.32;2.05;;;2.70;99.90;;;;;;5020884;28;20038;-71
2024/01/12 01:51:48;;;;;;;8.45;2.40;;;2.70;99.90;;;;;;5023115;28;20038;-71
2024/01/12 01:54:15;;;;;;;7.88;2.20;;;2.70;99.90;;;;;;5024699;28;20168;-71
2024/01/12 01:56:41;;;;;;;;;;;2.70;99.90;;;;;;5027394;28;20461;-71
2024/01/12 01:59:10;;;;;;;9.48;2.42;;;2.70;99.90;;;;;;5023135;28;19971;-71
2024/01/12 02:01:35;;;;;;;9.73;2.38;;;2.70;99.90;;;;;;5024926;28;20098;-70
2024/01/12 02:04:02;;;;;;;7.07;2.20;;;2.70;99.90;;;;;;5026549;28;20132;-70
2024/01/12 02:06:27;;;;;;;10.05;3.00;;;2.70;99.90;;;;;;5023419;28;20045;-71
2024/01/12 02:08:53;;;;;;;6.97;2.33;;;2.70;99.90;;;;;;5023950;28;20041;-71
2024/01/12 02:11:19;;;;;;;8.90;2.70;;;2.70;99.90;;;;;;5025031;28;20045;-71
2024/01/12 02:13:45;;;;;;;10.87;3.00;;;2.70;99.90;;;;;;5021882;28;20490;-71
2024/01/12 02:16:10;;;;;;;11.60;2.60;;;2.70;99.90;;;;;;5024668;28;20037;-71
2024/01/12 02:18:36;;;;;;;6.10;2.40;;;2.60;99.90;;;;;;5014674;28;20041;-71
2024/01/12 02:21:04;;;;;;;10.60;3.00;;;2.60;99.90;;;;;;5022025;28;20049;-71
2024/01/12 02:23:30;;;;;;;8.73;2.78;;;2.60;99.90;;;;;;5026566;28;20045;-71
2024/01/12 02:25:55;;;;;;;8.60;3.03;;;2.60;99.90;;;;;;5020940;28;20407;-71
2024/01/12 02:28:21;;;;;;;6.23;2.87;;;2.60;99.90;;;;;;5023702;28;20044;-71
2024/01/12 02:30:47;;;;;;;7.03;2.75;;;2.60;99.90;;;;;;5017162;28;20049;-70
2024/01/12 02:33:13;;;;;;;9.30;3.27;;;2.60;99.90;;;;;;5025258;28;20057;-71
2024/01/12 02:35:38;;;;;;;9.83;3.70;;;2.60;99.90;;;;;;5025990;28;20398;-71
2024/01/12 02:38:04;;;;;;;10.77;3.67;;;2.60;99.90;;;;;;5019412;28;20038;-70
2024/01/12 02:40:30;;;;;;;12.63;4.17;;;2.60;99.90;;;;;;5025858;28;20042;-71
2024/01/12 02:42:55;;;;;;;7.50;3.67;;;2.60;99.90;;;;;;5023860;28;20165;-70
2024/01/12 02:45:21;;;;;;;15.63;3.83;;;2.70;99.90;;;;;;5023493;28;20627;-71
2024/01/12 02:47:49;;;;;;;7.47;3.38;;;2.60;99.90;;;;;;5020314;28;20044;-70
2024/01/12 02:50:15;;;;;;;13.02;3.67;;;2.60;99.90;;;;;;5017966;28;20227;-71
2024/01/12 02:52:40;;;;;;;10.57;3.77;;;2.60;99.90;;;;;;5023916;28;20029;-71
2024/01/12 02:55:06;;;;;;;7.43;3.03;;;2.50;99.90;;;;;;5022843;28;20041;-71
2024/01/12 02:57:32;;;;;;;6.57;2.78;;;2.50;99.90;;;;;;5024283;28;20590;-71
2024/01/12 02:59:58;;;;;;;7.13;3.03;;;2.50;99.90;;;;;;5020031;28;20052;-71
2024/01/12 03:02:26;;;;;;;8.30;2.70;;;2.40;99.90;;;;;;5025491;28;20080;-71
2024/01/12 03:04:52;;;;;;;5.97;3.25;;;2.40;99.90;;;;;;5023887;28;20065;-71
2024/01/12 03:07:18;;;;;;;7.00;3.30;;;2.30;99.90;;;;;;5017075;28;20083;-71
2024/01/12 03:09:43;;;;;;;5.63;2.93;;;2.30;99.90;;;;;;5023456;28;20399;-71
2024/01/12 03:12:09;;;;;;;8.17;3.40;;;2.30;99.90;;;;;;5022957;28;20045;-71
2024/01/12 03:14:37;;;;;;;10.37;3.40;;;2.20;99.90;;;;;;5019348;28;20041;-72
2024/01/12 03:17:02;;;;;;;13.45;3.25;;;2.20;99.90;;;;;;5020604;28;20036;-71
2024/01/12 03:19:28;;;;;;;7.10;3.87;;;2.10;99.90;;;;;;5021860;28;20041;-71
2024/01/12 03:21:54;;;;;;;12.47;3.63;;;2.10;99.90;;;;;;5018464;28;20033;-71
2024/01/12 03:24:19;;;;;;;10.33;3.40;;;2.10;99.90;;;;;;5006702;28;20056;-71
2024/01/12 03:26:46;;;;;;;8.10;3.20;;;2.10;99.90;;;;;;5020160;28;20099;-71
2024/01/12 03:29:12;;;;;;;9.57;3.47;;;2.00;99.90;;;;;;5020670;28;20045;-72
2024/01/12 03:31:38;;;;;;;8.57;3.00;;;1.90;99.90;;;;;;5004227;28;20067;-71
2024/01/12 03:34:03;;;;;;;10.50;3.17;;;1.90;99.90;;;;;;5013827;28;20045;-72
2024/01/12 03:36:29;;;;;;;7.43;3.10;;;1.80;99.90;;;;;;5023638;28;20518;-71
2024/01/12 03:38:55;;;;;;;14.87;3.63;;;1.70;99.90;;;;;;5020529;28;20047;-71
2024/01/12 03:41:23;;;;;;;11.63;2.83;;;1.70;99.90;;;;;;5024503;28;20124;-71
2024/01/12 03:43:49;;;;;;;6.78;3.10;;;1.70;99.90;;;;;;5020402;28;20273;-71
2024/01/12 03:46:14;;;;;;;5.50;3.23;;;1.60;99.90;;;;;;5024525;28;20034;-71
2024/01/12 03:48:48;;;;;;;7.43;3.37;;;1.50;99.90;;;;;;5022425;28;20195;-71
2024/01/12 03:51:14;;;;;;;9.50;3.60;;;1.50;99.90;;;;;;5013645;28;20124;-72
2024/01/12 03:53:39;;;;;;;5.93;2.60;;;1.40;99.90;;;;;;5006294;28;20116;-71
2024/01/12 03:56:05;;;;;;;5.73;2.40;;;1.40;99.90;;;;;;5020122;28;20041;-71
2024/01/12 03:58:31;;;;;;;5.93;3.17;;;1.30;99.90;;;;;;5023774;28;20041;-71
2024/01/12 04:00:56;;;;;;;8.27;3.10;;;1.30;99.90;;;;;;5014218;28;20557;-71
2024/01/12 04:03:22;;;;;;;6.00;2.93;;;1.30;99.90;;;;;;5006865;28;20035;-71
2024/01/12 04:05:47;;;;;;;7.77;3.50;;;1.20;99.90;;;;;;5023215;28;20548;-71
2024/01/12 04:08:16;;;;;;;11.37;3.50;;;1.30;99.90;;;;;;5023189;28;20056;-71
2024/01/12 04:10:41;;;;;;;8.48;3.00;;;1.30;99.90;;;;;;5020576;28;20049;-71
2024/01/12 04:13:08;;;;;;;7.63;3.00;;;1.30;99.90;;;;;;5020677;28;20041;-71
2024/01/12 04:15:33;;;;;;;7.55;2.92;;;1.30;99.90;;;;;;5022887;28;20132;-71
2024/01/12 04:18:01;;;;;;;7.67;3.37;;;1.30;99.90;;;;;;5018712;28;20132;-72
2024/01/12 04:20:27;;;;;;;11.43;3.25;;;1.40;99.90;;;;;;5008652;28;20085;-71
2024/01/12 04:22:53;;;;;;;10.60;2.88;;;1.40;99.90;;;;;;5021611;28;20506;-71
2024/01/12 04:25:18;;;;;;;11.20;3.70;;;1.40;99.90;;;;;;5021283;28;20402;-71
2024/01/12 04:27:44;;;;;;;12.27;4.00;;;1.40;99.90;;;;;;5021081;28;20545;-71
2024/01/12 04:30:10;;;;;;;16.17;4.20;;;1.40;99.90;;;;;;5016392;28;20132;-71
2024/01/12 04:32:35;;;;;;;13.13;3.60;;;1.50;99.90;;;;;;5023436;28;20120;-71
2024/01/12 04:35:04;;;;;;;9.77;3.37;;;1.50;99.90;;;;;;5020871;28;20672;-71
2024/01/12 04:37:29;;;;;;;8.90;3.17;;;1.50;99.90;;;;;;5015796;28;20052;-71
2024/01/12 04:39:55;;;;;;;8.50;3.40;;;1.60;99.90;;;;;;5023332;28;20045;-71
2024/01/12 04:42:20;;;;;;;5.97;2.73;;;1.70;99.90;;;;;;5021630;28;20124;-71
2024/01/12 04:44:49;;;;;;;10.33;3.03;;;1.70;99.90;;;;;;5018156;28;20033;-71
2024/01/12 04:47:14;;;;;;;9.25;3.58;;;1.70;99.90;;;;;;5020682;28;20346;-71
2024/01/12 04:49:40;;;;;;;7.80;3.20;;;1.70;99.90;;;;;;5023281;28;20056;-70
2024/01/12 04:52:05;;;;;;;8.03;3.23;;;1.70;99.90;;;;;;5019278;28;20495;-70
2024/01/12 04:54:34;;;;;;;9.30;3.40;;;1.70;99.90;;;;;;5018275;28;20272;-71
2024/01/12 04:56:59;;;;;;;7.13;3.65;;;1.80;99.90;;;;;;5022102;28;20037;-71
2024/01/12 04:59:25;;;;;;;13.07;3.70;;;1.70;99.90;;;;;;5020670;28;20037;-72
2024/01/12 05:01:51;;;;;;;12.43;3.30;;;1.80;99.90;;;;;;5018555;28;20055;-70
2024/01/12 05:04:16;;;;;;;6.70;3.37;;;1.80;99.90;;;;;;5018998;28;20071;-70
2024/01/12 05:06:42;;;;;;;5.90;2.80;;;1.80;99.90;;;;;;5018824;28;20179;-70
2024/01/12 05:09:08;;;;;;;7.17;3.63;;;1.80;99.90;;;;;;5006102;28;20040;-70
2024/01/12 05:11:33;;;;;;;8.37;3.57;;;1.80;99.90;;;;;;5020300;28;20305;-70
2024/01/12 05:13:59;;;;;;;9.03;4.33;;;1.80;99.90;;;;;;5014244;28;20513;-70
2024/01/12 05:16:25;;;;;;;11.73;3.38;;;1.90;99.90;;;;;;5021931;28;20045;-71
2024/01/12 05:18:51;;;;;;;10.52;3.95;;;1.90;99.90;;;;;;5019574;28;20693;-70
2024/01/12 05:21:17;;;;;;;13.10;3.70;;;1.90;99.90;;;;;;5021369;28;20053;-71
2024/01/12 05:23:48;;;;;;;8.70;3.35;;;1.90;99.90;;;;;;5017192;28;20038;-71
2024/01/12 05:26:13;;;;;;;8.20;3.75;;;2.00;99.90;;;;;;5005882;28;20048;-70
2024/01/12 05:28:39;;;;;;;10.27;4.13;;;2.00;99.90;;;;;;5019455;28;20041;-70
2024/01/12 05:31:08;;;;;;;8.67;3.33;;;2.00;99.90;;;;;;5020284;28;20067;-71
2024/01/12 05:33:39;;;;;;;12.45;3.60;;;2.10;99.90;;;;;;5003489;28;20080;-71
2024/01/12 05:36:08;;;;;;;7.10;3.40;;;2.10;99.90;;;;;;5017189;28;20107;-71
2024/01/12 05:38:39;;;;;;;10.07;3.13;;;2.10;99.90;;;;;;5018609;28;20065;-70
2024/01/12 05:41:05;;;;;;;12.57;2.80;;;2.20;99.90;;;;;;5018962;28;20107;-70
2024/01/12 05:43:30;;;;;;;6.00;2.77;;;2.20;99.90;;;;;;5014154;28;20060;-70
2024/01/12 05:45:56;;;;;;;9.87;3.27;;;2.20;99.90;;;;;;5018553;28;20401;-70
2024/01/12 05:48:21;;;;;;;6.67;3.57;;;2.20;99.90;;;;;;5020488;28;20080;-70
2024/01/12 05:50:50;;;;;;;10.00;3.73;;;2.20;99.90;;;;;;5018939;28;20042;-70
2024/01/12 05:53:25;;;;;;;9.82;4.10;;;2.20;99.90;;;;;;5020538;28;20048;-71
2024/01/12 05:55:52;;;;;;;15.30;4.07;;;2.30;99.90;;;;;;5002108;28;20040;-70
2024/01/12 05:58:18;;;;;;;12.30;4.00;;;2.30;99.90;;;;;;5024918;28;20045;-71
2024/01/12 06:00:44;;;;;;;11.40;3.97;;;2.30;99.90;;;;;;5017652;28;20063;-70
2024/01/12 06:03:10;;;;;;;10.20;3.37;;;2.30;99.90;;;;;;5025050;28;20494;-71
2024/01/12 06:05:35;;;;;;;16.70;3.90;;;2.30;99.90;;;;;;5017163;28;20128;-70
2024/01/12 06:08:03;;;;;;;9.77;4.20;;;2.40;99.90;;;;;;5019758;28;20524;-71
2024/01/12 06:10:33;;;;;;;11.05;4.00;;;2.40;99.90;;;;;;5017380;28;20148;-70
2024/01/12 06:13:00;;;;;;;18.42;3.83;;;2.40;99.90;;;;;;5023832;28;20052;-70
2024/01/12 06:15:26;;;;;;;10.30;3.03;;;2.40;99.90;;;;;;5022563;28;20044;-71
2024/01/12 06:17:52;;;;;;;9.10;2.43;;;2.50;99.90;;;;;;5021012;28;20045;-71
2024/01/12 06:20:20;;;;;;;8.60;2.70;;;2.50;99.90;;;;;;5024000;28;20041;-70
2024/01/12 06:22:46;;;;;;;9.98;2.78;;;2.60;99.90;;;;;;5024623;28;20429;-70
2024/01/12 06:25:14;;;;;;;5.57;2.80;;;2.60;99.90;;;;;;5025567;28;20037;-70
2024/01/12 06:27:41;;;;;;;7.05;2.50;;;2.60;99.90;;;;;;5020631;28;20037;-70
2024/01/12 06:30:07;;;;;;;8.88;2.53;;;2.70;99.90;;;;;;5003644;28;20045;-82
2024/01/12 06:32:33;;;;;;;9.05;2.95;;;2.70;99.90;;;;;;5022139;28;20045;-70
2024/01/12 06:34:59;;;;;;;8.90;2.63;;;2.70;99.90;;;;;;5020814;28;20064;-70
2024/01/12 06:37:24;;;;;;;13.43;3.13;;;2.70;99.90;;;;;;5022642;28;20041;-70
2024/01/12 06:39:50;;;;;;;16.70;4.10;;;2.80;99.90;;;;;;5009918;28;20049;-71
2024/01/12 06:42:16;;;;;;;13.03;3.07;;;2.70;99.90;;;;;;5024202;28;20037;-70
2024/01/12 06:44:41;;;;;;;10.52;3.50;;;2.80;99.90;;;;;;5022717;28;20076;-71
2024/01/12 06:47:07;;;;;;;12.07;3.90;;;2.80;99.90;;;;;;5020047;28;20037;-74
2024/01/12 06:49:36;;;;;;;19.58;5.35;;;2.80;99.90;;;;;;5006346;28;20073;-74
2024/01/12 06:52:01;;;;;;;15.75;5.32;;;2.80;99.90;;;;;;5021016;28;20048;-71
2024/01/12 06:54:27;;;;;;;16.00;4.40;;;2.80;99.90;;;;;;5001314;28;20045;-74
2024/01/12 06:56:57;;;;;;;10.63;5.03;;;2.90;99.90;;;;;;5021976;28;20033;-71
2024/01/12 06:59:23;;;;;;;17.50;4.65;;;2.90;99.90;;;;;;5017525;28;20482;-72
2024/01/12 07:01:49;;;;;;;10.83;3.97;;;2.90;99.90;;;;;;5020330;28;20040;-71
2024/01/12 07:04:15;;;;;;;17.57;3.30;;;2.90;99.90;;;;;;5024761;28;20118;-71
2024/01/12 07:06:40;;;;;;;11.63;3.03;;;2.90;99.90;;;;;;4996850;28;20080;-73
2024/01/12 07:09:06;;;;;;;19.97;2.93;;;2.90;99.90;;;;;;5021053;28;20043;-71
2024/01/12 07:11:32;;;;;;;18.65;5.13;;;2.90;99.90;;;;;;5023424;28;20046;-76
2024/01/12 07:13:58;;;;;;;16.83;4.90;;;2.90;99.90;;;;;;5020911;28;20513;-71
2024/01/12 07:16:23;;;;;;;14.90;5.10;;;2.90;99.90;;;;;;5017351;28;20071;-71
2024/01/12 07:18:49;;;;;;;15.30;4.67;;;2.90;99.90;;;;;;5020216;28;20132;-70
2024/01/12 07:21:15;;;;;;;17.90;5.70;;;3.00;99.90;;;;;;5015048;28;20501;-70
2024/01/12 07:23:40;;;;;;;17.30;4.73;;;3.00;99.90;;;;;;5025632;28;20033;-70
2024/01/12 07:26:08;;;;;;;16.20;7.37;;;3.00;99.90;;;;;;5020280;28;20041;-70
2024/01/12 07:28:34;;;;;;;12.02;5.93;;;3.10;99.90;;;;;;5019622;28;20042;-70
2024/01/12 07:31:00;;;;;;;16.40;6.03;;;3.10;99.90;;;;;;5021273;28;20049;-70
2024/01/12 07:33:25;;;;;;;20.80;6.73;;;3.10;99.90;;;;;;5025195;28;20379;-70
2024/01/12 07:35:55;;;;;;;12.77;5.15;;;3.10;99.90;;;;;;5014288;28;20490;-70
2024/01/12 07:38:20;;;;;;;10.33;3.27;;;3.10;99.90;;;;;;5023469;28;20138;-70
2024/01/12 07:40:48;;;;;;;19.20;4.17;;;3.20;99.90;;;;;;5018274;28;20504;-71
2024/01/12 07:43:17;;;;;;;15.77;3.50;;;3.20;99.90;;;;;;5018090;28;21365;-70
2024/01/12 07:45:42;;;;;;;14.65;2.75;;;3.20;99.90;;;;;;5018783;28;20452;-71
2024/01/12 07:48:08;;;;;;;17.77;2.10;;;3.20;99.90;;;;;;5022639;28;20083;-71
2024/01/12 07:50:34;;;;;;;9.43;2.47;;;3.20;99.90;;;;;;5016410;28;20049;-71
2024/01/12 07:53:00;;;;;;;11.88;2.25;;;3.20;99.90;;;;;;5011707;28;20049;-71
2024/01/12 07:55:27;;;;;;;14.67;2.97;;;3.20;99.90;;;;;;5022148;28;20106;-71
2024/01/12 07:57:53;;;;;;;10.40;2.60;;;3.20;99.90;;;;;;5015059;28;20335;-71
2024/01/12 08:00:19;;;;;;;17.02;2.72;;;3.30;99.90;;;;;;5021313;28;20048;-71
2024/01/12 08:02:45;;;;;;;9.75;2.63;;;3.30;99.90;;;;;;5022395;28;20061;-71
2024/01/12 08:05:11;;;;;;;11.87;2.33;;;3.30;99.90;;;;;;5021529;28;20049;-71
2024/01/12 08:07:37;;;;;;;11.87;4.07;;;3.30;99.90;;;;;;5018242;28;20422;-71
2024/01/12 08:10:03;;;;;;;15.25;3.47;;;3.30;99.90;;;;;;5021485;28;20309;-71
2024/01/12 08:12:29;;;;;;;11.27;3.08;;;3.30;99.90;;;;;;5006021;28;20080;-71
2024/01/12 08:14:55;;;;;;;10.57;2.50;;;3.30;99.90;;;;;;5020575;28;20467;-71
2024/01/12 08:17:20;;;;;;;13.30;3.30;;;3.40;99.90;;;;;;5023191;28;20045;-71
2024/01/12 08:19:47;;;;;;;16.40;2.90;;;3.40;99.90;;;;;;5022019;28;20124;-71
2024/01/12 08:22:13;;;;;;;13.40;2.45;;;3.50;99.90;;;;;;5020505;28;20133;-71
2024/01/12 08:24:40;;;;;;;15.02;3.83;;;3.50;99.90;;;;;;5023523;28;20053;-71
2024/01/12 08:27:05;;;;;;;10.07;1.77;;;3.50;99.90;;;;;;5019340;28;20093;-71
2024/01/12 08:29:31;;;;;;;10.10;2.23;;;3.50;99.90;;;;;;5014866;28;20100;-71
2024/01/12 08:31:58;;;;;;;12.70;2.10;;;3.50;99.90;;;;;;5022205;28;20042;-71
2024/01/12 08:34:27;;;;;;;11.05;2.00;;;3.60;99.90;;;;;;5023819;28;20048;-71
2024/01/12 08:36:53;;;;;;;10.35;2.47;;;3.50;99.90;;;;;;5000969;28;20046;-71
2024/01/12 08:39:19;;;;;;;10.05;1.80;;;3.60;99.90;;;;;;5022755;28;20124;-71
2024/01/12 08:41:44;;;;;;;11.97;2.40;;;3.60;99.90;;;;;;5014117;28;20586;-70
2024/01/12 08:44:11;;;;;;;7.77;2.07;;;3.70;99.90;;;;;;5021488;28;20060;-70
2024/01/12 08:46:37;;;;;;;13.70;2.08;;;3.70;99.90;;;;;;5022059;28;20151;-71
2024/01/12 08:49:03;;;;;;;15.15;2.50;;;3.80;99.90;;;;;;5014345;28;21354;-71
2024/01/12 08:51:28;;;;;;;16.73;2.77;;;3.80;99.90;;;;;;5014726;28;20069;-71
2024/01/12 08:53:54;;;;;;;5.40;1.43;;;3.80;99.90;;;;;;5020468;28;21307;-71
2024/01/12 08:56:20;;;;;;;12.60;1.70;;;3.90;99.90;;;;;;5024883;28;20273;-71
2024/01/12 08:58:45;;;;;;;11.67;1.83;;;3.90;99.90;;;;;;5021690;28;20454;-71
2024/01/12 09:01:15;;;;;;;14.60;2.17;;;3.90;99.90;;;;;;5022114;28;20135;-71
2024/01/12 09:03:41;;;;;;;10.45;2.20;;;4.00;99.90;;;;;;5020773;28;20085;-71
2024/01/12 09:06:07;;;;;;;13.10;2.17;;;4.00;99.90;;;;;;5013757;28;20081;-71
2024/01/12 09:08:32;;;;;;;10.27;1.90;;;4.00;99.90;;;;;;5015490;28;20045;-71
2024/01/12 09:10:59;;;;;;;19.70;1.70;;;4.00;99.90;;;;;;5005088;28;20069;-71
2024/01/12 09:13:25;;;;;;;13.00;2.15;;;4.00;99.90;;;;;;5022348;28;20037;-71
2024/01/12 09:15:51;;;;;;;5.23;1.80;;;4.00;99.90;;;;;;5021567;28;20037;-72
2024/01/12 09:18:16;;;;;;;16.13;2.27;;;4.00;99.90;;;;;;5022383;28;20836;-71
2024/01/12 09:20:42;;;;;;;13.83;2.10;;;4.10;99.90;;;;;;5020719;28;20052;-71
2024/01/12 09:23:08;;;;;;;10.67;1.80;;;4.10;99.90;;;;;;5020416;28;20056;-71
2024/01/12 09:25:34;;;;;;;8.40;1.85;;;4.10;99.90;;;;;;5023917;28;20096;-71
2024/01/12 09:28:00;;;;;;;15.10;2.10;;;4.20;99.90;;;;;;5017611;28;20510;-71
2024/01/12 09:30:26;;;;;;;7.57;1.45;;;4.20;99.90;;;;;;5021997;28;20068;-71
2024/01/12 09:32:52;;;;;;;10.70;1.92;;;4.20;99.90;;;;;;5006772;28;20038;-71
2024/01/12 09:35:17;;;;;;;12.00;1.53;;;4.20;99.90;;;;;;5022247;28;20037;-71
2024/01/12 09:37:43;;;;;;;7.00;1.40;;;4.30;99.90;;;;;;5020648;28;20381;-71
2024/01/12 09:40:10;;;;;;;12.53;1.80;;;4.30;99.90;;;;;;5003709;28;20045;-71
2024/01/12 09:42:38;;;;;;;8.02;1.58;;;4.30;99.90;;;;;;5019310;28;20054;-71
2024/01/12 09:45:04;;;;;;;8.98;2.90;;;4.30;99.90;;;;;;5024502;28;20050;-71
2024/01/12 09:47:29;;;;;;;15.55;2.08;;;4.30;99.90;;;;;;5021366;28;20044;-71
2024/01/12 09:49:56;;;;;;;11.27;1.80;;;4.30;99.90;;;;;;5024757;28;20477;-71
2024/01/12 09:52:21;;;;;;;15.20;2.05;;;4.30;99.90;;;;;;5022664;28;20087;-71
2024/01/12 09:54:47;;;;;;;8.00;1.90;;;4.40;99.90;;;;;;5025484;28;20054;-71
2024/01/12 09:57:12;;;;;;;8.70;2.60;;;4.40;99.90;;;;;;5026913;28;20044;-71
2024/01/12 09:59:39;;;;;;;13.30;2.23;;;4.30;99.90;;;;;;5009903;28;20083;-71
2024/01/12 10:02:12;;;;;;;9.30;1.52;;;4.30;99.90;;;;;;5020887;28;20041;-71
2024/01/12 10:04:37;;;;;;;12.18;1.85;;;4.40;99.90;;;;;;5024464;28;20057;-71
2024/01/12 10:07:03;;;;;;;8.90;1.67;;;4.40;99.90;;;;;;5024093;28;20084;-71
2024/01/12 10:09:29;;;;;;;7.70;1.80;;;4.40;99.90;;;;;;5022696;28;20041;-71
2024/01/12 10:11:55;;;;;;;5.67;1.67;;;4.40;99.90;;;;;;5025049;28;20487;-71
2024/01/12 10:14:22;;;;;;;21.85;2.60;;;4.40;99.90;;;;;;5023069;28;20037;-71
2024/01/12 10:16:58;;;;;;;13.00;2.90;;;4.40;99.90;;;;;;5024693;28;20423;-71
2024/01/12 10:19:25;;;;;;;15.15;1.73;;;4.40;99.90;;;;;;5025324;28;20052;-71
2024/01/12 10:21:51;;;;;;;15.32;2.28;;;4.40;99.90;;;;;;5007198;28;20141;-71
2024/01/12 10:24:18;;;;;;;9.32;1.70;;;4.40;99.90;;;;;;5024551;28;20049;-71
2024/01/12 10:26:46;;;;;;;13.73;2.25;;;4.40;99.90;;;;;;5000156;28;20041;-71
2024/01/12 10:29:13;;;;;;;9.63;2.13;;;4.50;99.90;;;;;;5015786;28;20177;-71
2024/01/12 10:31:41;;;;;;;14.15;2.33;;;4.50;99.90;;;;;;5022321;28;20494;-71
2024/01/12 10:34:11;;;;;;;12.15;1.90;;;4.50;99.90;;;;;;5025759;28;20099;-71
2024/01/12 10:36:37;;;;;;;7.00;2.70;;;4.50;99.90;;;;;;5024367;28;20041;-71
2024/01/12 10:39:03;;;;;;;12.90;2.72;;;4.50;99.90;;;;;;5022554;28;20056;-71
2024/01/12 10:41:31;;;;;;;8.32;1.70;;;4.50;99.90;;;;;;5024060;28;20049;-71
2024/01/12 10:44:03;;;;;;;9.48;1.85;;;4.50;99.90;;;;;;5016782;28;20266;-71
2024/01/12 10:46:38;;;;;;;7.68;1.55;;;4.50;99.90;;;;;;5001382;28;20045;-70
2024/01/12 10:49:21;;;;;;;6.65;1.65;;;4.50;99.90;;;;;;5023379;28;20096;-70
2024/01/12 10:51:52;;;;;;;8.77;1.40;;;4.50;99.90;;;;;;5023342;28;20041;-71
2024/01/12 10:54:29;;;;;;;7.43;1.85;;;4.50;99.90;;;;;;5024192;28;20052;-71
2024/01/12 10:56:55;;;;;;;12.20;2.17;;;4.50;99.90;;;;;;5022490;28;20137;-71
2024/01/12 10:59:22;;;;;;;9.55;1.88;;;4.50;99.90;;;;;;5024619;28;20049;-70
2024/01/12 11:01:49;;;;;;;13.70;1.60;;;4.60;99.90;;;;;;5014598;28;20053;-71
2024/01/12 11:04:15;;;;;;;14.07;2.30;;;4.60;99.90;;;;;;5022480;28;20053;-71
2024/01/12 11:06:45;;;;;;;8.68;2.63;;;4.60;99.90;;;;;;5023600;28;20057;-71
2024/01/12 11:09:12;;;;;;;10.25;2.45;;;4.60;99.90;;;;;;5020913;28;20111;-71
2024/01/12 11:11:47;;;;;;;15.27;2.42;;;4.60;99.90;;;;;;5021289;28;20053;-70
2024/01/12 11:14:14;;;;;;;10.80;2.15;;;4.60;99.90;;;;;;5002780;28;20180;-71
2024/01/12 11:16:41;;;;;;;8.90;2.08;;;4.70;99.90;;;;;;5023663;28;20120;-71
2024/01/12 11:19:14;;;;;;;11.77;2.92;;;4.70;99.90;;;;;;5020489;28;20049;-71
2024/01/12 11:21:41;;;;;;;15.60;7.28;;;4.70;99.90;;;;;;5020255;28;20053;-71
2024/01/12 11:24:09;;;;;;;15.68;3.78;;;4.80;99.90;;;;;;5023308;28;20128;-71
2024/01/12 11:26:35;;;;;;;13.63;3.95;;;4.80;99.90;;;;;;5024058;28;20038;-71
2024/01/12 11:29:01;;;;;;;12.27;2.57;;;4.80;99.90;;;;;;5019456;28;20045;-71
2024/01/12 11:31:27;;;;;;;9.47;1.90;;;4.80;99.90;;;;;;5004919;28;20045;-71
2024/01/12 11:34:00;;;;;;;18.80;2.47;;;4.80;99.90;;;;;;5022097;28;20441;-70
2024/01/12 11:36:30;;;;;;;17.67;2.95;;;4.80;99.90;;;;;;5020261;28;20049;-71
2024/01/12 11:39:02;;;;;;;8.80;2.33;;;4.90;99.90;;;;;;5018738;28;20041;-71
2024/01/12 11:41:31;;;;;;;11.43;3.00;;;4.90;99.90;;;;;;5024356;28;20422;-71
2024/01/12 11:43:57;;;;;;;11.32;2.47;;;4.90;99.90;;;;;;5025727;28;20041;-72
2024/01/12 11:46:24;;;;;;;9.57;2.42;;;4.90;99.90;;;;;;5019495;28;20041;-69
2024/01/12 11:48:50;;;;;;;19.15;2.90;;;4.90;99.90;;;;;;5020648;28;20540;-69
2024/01/12 11:51:24;;;;;;;11.75;2.65;;;4.90;99.90;;;;;;4999360;28;20046;-69
2024/01/12 11:53:51;;;;;;;11.75;2.65;;;4.90;99.90;;;;;;5024236;28;20052;-70
2024/01/12 11:56:17;;;;;;;10.65;2.30;;;4.90;99.90;;;;;;5018200;28;20493;-74
2024/01/12 11:58:43;;;;;;;14.00;2.57;;;5.00;99.90;;;;;;5020837;28;20048;-73
2024/01/12 12:01:08;;;;;;;18.27;3.30;;;4.90;99.90;;;;;;5024003;28;20072;-68
2024/01/12 12:03:34;;;;;;;12.80;4.03;;;5.00;99.90;;;;;;5014988;28;20402;-69
2024/01/12 12:06:00;;;;;;;13.07;2.17;;;5.00;99.90;;;;;;5020681;28;20087;-69
2024/01/12 12:08:27;;;;;;;12.97;2.03;;;5.00;99.90;;;;;;5025148;28;20405;-69
2024/01/12 12:10:53;;;;;;;13.10;2.03;;;5.10;99.90;;;;;;5017941;28;20410;-71
2024/01/12 12:13:19;;;;;;;16.63;2.63;;;5.10;99.90;;;;;;5022907;28;20036;-69
2024/01/12 12:15:46;;;;;;;22.60;3.80;;;5.10;99.90;;;;;;5024990;28;20040;-68
2024/01/12 12:18:12;;;;;;;14.80;3.67;;;5.10;99.90;;;;;;5005004;28;20064;-68
2024/01/12 12:20:38;;;;;;;15.85;3.55;;;5.10;99.90;;;;;;5019623;28;20041;-69
2024/01/12 12:23:04;;;;;;;15.45;5.90;;;5.10;99.90;;;;;;5020715;28;20057;-69
2024/01/12 12:25:29;;;;;;;13.63;4.32;;;5.10;99.90;;;;;;5006527;28;20041;-69
2024/01/12 12:27:56;;;;;;;25.40;2.90;;;5.10;99.90;;;;;;5017780;28;20510;-69
2024/01/12 12:30:22;;;;;;;14.77;2.90;;;5.20;99.90;;;;;;5019571;28;20060;-69
2024/01/12 12:32:48;;;;;;;11.40;3.23;;;5.20;99.90;;;;;;5023090;28;20033;-69
2024/01/12 12:35:17;;;;;;;11.57;3.47;;;5.20;99.90;;;;;;5022380;28;20033;-69
2024/01/12 12:37:43;;;;;;;13.10;2.83;;;5.20;99.90;;;;;;5020161;28;20235;-69
2024/01/12 12:40:11;;;;;;;10.27;2.15;;;5.20;99.90;;;;;;5024595;28;20144;-69
2024/01/12 12:42:41;;;;;;;11.80;2.33;;;5.10;99.90;;;;;;5011995;28;20076;-70
2024/01/12 12:45:07;;;;;;;15.35;2.50;;;5.20;99.90;;;;;;5014953;28;20361;-69
2024/01/12 12:47:36;;;;;;;11.18;2.10;;;5.20;99.90;;;;;;5021951;28;20051;-69
2024/01/12 12:50:04;;;;;;;8.73;2.03;;;5.20;99.90;;;;;;5022218;28;20042;-70